Time;durP1;ratioP1;P1;durP2;ratioP2;P2;SDS_P1;SDS_P2;PMS_P1;PMS_P2;Temp;Humidity;BMP_temperature;BMP_pressure;BME280_temperature;BME280_humidity;BME280_pressure;Samples;Min_cycle;Max_cycle;Signal;HPM_P1;HPM_P2
2022/11/16 00:00:35;;;;;;;12.77;9.50;;;14.50;62.90;;;;;;5080813;28;20954;-87
2022/11/16 00:03:03;;;;;;;10.23;8.80;;;14.60;62.90;;;;;;5091500;28;20456;-87
2022/11/16 00:05:31;;;;;;;13.17;9.00;;;14.60;62.80;;;;;;5097845;28;20460;-87
2022/11/16 00:07:58;;;;;;;11.63;8.87;;;14.70;62.90;;;;;;5071787;28;20451;-87
2022/11/16 00:10:25;;;;;;;11.40;8.03;;;14.70;63.20;;;;;;5078727;28;20458;-87
2022/11/16 00:12:53;;;;;;;14.17;10.60;;;14.80;63.10;;;;;;5079638;28;20460;-90
2022/11/16 00:15:20;;;;;;;11.20;8.90;;;14.70;62.70;;;;;;5079108;28;20513;-88
2022/11/16 00:17:47;;;;;;;12.10;9.00;;;14.80;62.70;;;;;;5104621;28;20849;-87
2022/11/16 00:20:14;;;;;;;16.40;9.30;;;14.80;62.60;;;;;;5079016;28;20517;-87
2022/11/16 00:22:42;;;;;;;11.43;9.10;;;14.80;62.30;;;;;;5086637;28;20929;-90
2022/11/16 00:25:09;;;;;;;13.20;9.50;;;14.70;62.10;;;;;;5095701;28;20494;-88
2022/11/16 00:27:36;;;;;;;12.33;8.90;;;14.70;62.30;;;;;;5070208;28;20451;-87
2022/11/16 00:30:05;;;;;;;11.50;8.23;;;14.60;62.40;;;;;;5086326;28;20466;-86
2022/11/16 00:32:32;;;;;;;13.60;9.00;;;14.50;62.70;;;;;;5077336;28;20447;-89
2022/11/16 00:34:59;;;;;;;13.30;9.63;;;14.60;62.90;;;;;;5086654;28;20597;-88
2022/11/16 00:37:27;;;;;;;13.53;9.90;;;14.60;62.80;;;;;;5103355;28;20534;-86
2022/11/16 00:39:55;;;;;;;11.67;8.43;;;14.60;62.70;;;;;;5069860;28;20481;-90
2022/11/16 00:42:22;;;;;;;12.37;8.70;;;14.60;62.70;;;;;;5083301;28;20549;-87
2022/11/16 00:44:50;;;;;;;15.83;8.40;;;14.40;63.40;;;;;;5095225;28;20474;-87
2022/11/16 00:47:17;;;;;;;9.93;8.83;;;14.30;64.10;;;;;;5092703;28;21013;-87
2022/11/16 00:49:45;;;;;;;10.97;7.90;;;14.40;63.60;;;;;;5075152;28;20812;-87
2022/11/16 00:52:12;;;;;;;11.63;7.60;;;14.50;63.30;;;;;;5062387;28;20462;-88
2022/11/16 00:54:39;;;;;;;12.93;9.10;;;14.60;63.40;;;;;;5074687;28;20483;-87
2022/11/16 00:57:08;;;;;;;14.00;9.90;;;14.70;63.40;;;;;;5103512;28;20462;-88
2022/11/16 00:59:36;;;;;;;15.80;10.77;;;14.70;63.00;;;;;;5094259;28;20456;-87
2022/11/16 01:02:03;;;;;;;14.07;10.43;;;14.70;62.70;;;;;;5102361;28;20463;-87
2022/11/16 01:04:30;;;;;;;14.20;10.00;;;14.70;62.70;;;;;;5093283;28;20470;-88
2022/11/16 01:06:59;;;;;;;13.47;9.60;;;14.70;62.80;;;;;;5079184;28;20482;-89
2022/11/16 01:09:26;;;;;;;13.07;8.70;;;14.40;63.80;;;;;;5080026;28;20991;-86
2022/11/16 01:12:08;;;;;;;15.57;8.93;;;14.40;64.20;;;;;;5078822;28;20483;-89
2022/11/16 01:14:37;;;;;;;13.40;9.80;;;14.20;64.50;;;;;;5059207;28;20481;-90
2022/11/16 01:17:06;;;;;;;14.53;9.40;;;14.40;64.10;;;;;;5080334;28;20474;-90
2022/11/16 01:19:33;;;;;;;12.70;9.07;;;14.50;64.00;;;;;;5084965;28;20451;-87
2022/11/16 01:22:01;;;;;;;11.90;9.20;;;14.50;63.70;;;;;;5076076;28;20524;-87
2022/11/16 01:24:28;;;;;;;12.27;9.30;;;14.60;63.50;;;;;;5082114;28;20470;-87
2022/11/16 01:26:57;;;;;;;14.30;8.03;;;14.70;63.50;;;;;;5067771;28;20439;-86
2022/11/16 01:29:27;;;;;;;15.67;9.87;;;14.70;63.30;;;;;;5076410;28;20443;-87
2022/11/16 01:31:58;;;;;;;15.73;9.50;;;14.70;63.20;;;;;;5080278;28;20498;-85
2022/11/16 01:34:25;;;;;;;12.10;9.40;;;14.70;63.00;;;;;;5096347;28;20741;-89
2022/11/16 01:36:55;;;;;;;13.67;10.57;;;14.70;62.80;;;;;;5103489;28;20438;-88
2022/11/16 01:39:23;;;;;;;14.30;9.57;;;14.70;62.70;;;;;;5077723;28;20452;-86
2022/11/16 01:41:54;;;;;;;12.27;9.23;;;14.70;62.90;;;;;;5078773;28;20485;-87
2022/11/16 01:44:55;;;;;;;13.57;9.97;;;14.70;63.00;;;;;;5090456;28;20468;-88
2022/11/16 01:47:23;;;;;;;12.43;9.90;;;14.80;63.10;;;;;;5079474;28;20458;-87
2022/11/16 01:49:53;;;;;;;16.13;10.50;;;14.80;63.00;;;;;;5078188;28;20600;-88
2022/11/16 01:52:29;;;;;;;12.73;9.40;;;14.80;63.00;;;;;;5071910;28;20966;-88
2022/11/16 01:54:57;;;;;;;14.60;9.97;;;14.80;62.90;;;;;;5083370;28;20471;-87
2022/11/16 01:57:31;;;;;;;13.40;9.70;;;14.80;62.90;;;;;;5074440;28;20523;-88
2022/11/16 02:00:08;;;;;;;13.53;8.83;;;14.80;62.80;;;;;;5067767;28;20456;-88
2022/11/16 02:02:45;;;;;;;13.37;10.13;;;14.80;62.80;;;;;;5090729;28;20450;-87
2022/11/16 02:05:33;;;;;;;12.83;8.97;;;14.80;62.80;;;;;;5094597;28;20520;-89
2022/11/16 02:11:19;;;;;;;12.30;9.50;;;14.80;62.80;;;;;;5082555;28;20497;-89
2022/11/16 02:13:59;;;;;;;17.77;9.93;;;14.80;62.90;;;;;;5059861;28;20492;-87
2022/11/16 02:16:35;;;;;;;12.77;9.77;;;14.80;63.00;;;;;;5067655;28;20451;-87
2022/11/16 02:19:25;;;;;;;15.30;10.33;;;14.80;63.00;;;;;;5073741;28;20446;-87
2022/11/16 02:22:03;;;;;;;15.90;10.90;;;14.80;63.00;;;;;;5065006;28;20470;-88
2022/11/16 02:24:44;;;;;;;16.47;10.60;;;14.80;63.00;;;;;;5093593;28;20477;-88
2022/11/16 02:27:34;;;;;;;13.40;10.33;;;14.80;63.10;;;;;;5067072;28;20568;-87
2022/11/16 02:30:04;;;;;;;13.83;10.77;;;14.80;63.00;;;;;;5086633;28;20447;-87
2022/11/16 02:32:34;;;;;;;13.20;10.30;;;14.80;63.10;;;;;;5088384;28;20456;-88
2022/11/16 02:35:07;;;;;;;16.67;11.70;;;14.80;63.10;;;;;;5090529;28;20478;-89
2022/11/16 02:37:38;;;;;;;16.80;10.63;;;14.70;63.00;;;;;;5088710;28;20853;-86
2022/11/16 02:40:09;;;;;;;16.93;10.50;;;14.70;63.00;;;;;;5088767;28;20489;-86
2022/11/16 02:42:41;;;;;;;13.43;9.97;;;14.70;63.10;;;;;;5093231;28;20469;-87
2022/11/16 02:45:16;;;;;;;16.30;10.87;;;14.70;63.10;;;;;;5092589;28;20527;-86
2022/11/16 02:47:46;;;;;;;14.47;10.73;;;14.70;63.00;;;;;;5082418;28;20543;-86
2022/11/16 02:50:19;;;;;;;14.07;9.73;;;14.70;63.00;;;;;;5082523;28;20503;-86
2022/11/16 02:52:47;;;;;;;15.27;10.00;;;14.80;63.30;;;;;;5088956;28;20564;-87
2022/11/16 02:55:14;;;;;;;13.10;10.10;;;14.70;63.20;;;;;;5089836;28;20544;-88
2022/11/16 02:57:50;;;;;;;17.33;10.90;;;14.70;63.50;;;;;;5073416;28;21224;-86
2022/11/16 03:00:22;;;;;;;15.00;10.50;;;14.70;63.40;;;;;;5105870;28;20500;-87
2022/11/16 03:03:13;;;;;;;16.03;10.67;;;14.80;63.40;;;;;;5089175;28;20470;-86
2022/11/16 03:05:43;;;;;;;17.73;11.10;;;14.80;63.30;;;;;;5092118;28;20459;-86
2022/11/16 03:08:18;;;;;;;13.70;11.03;;;14.80;63.40;;;;;;5072933;28;20850;-86
2022/11/16 03:13:37;;;;;;;14.20;10.90;;;14.80;63.30;;;;;;5059310;28;20510;-86
2022/11/16 03:16:11;;;;;;;17.90;10.90;;;14.80;63.30;;;;;;5061428;28;20525;-88
2022/11/16 03:18:40;;;;;;;19.67;15.23;;;14.80;63.30;;;;;;5079426;28;20468;-86
2022/11/16 03:21:15;;;;;;;20.13;12.90;;;14.80;63.40;;;;;;5077631;28;20523;-86
2022/11/16 03:23:45;;;;;;;15.77;12.03;;;14.80;63.50;;;;;;5066647;28;20473;-87
2022/11/16 03:26:16;;;;;;;17.33;11.47;;;14.60;64.30;;;;;;5081688;28;20514;-86
2022/11/16 03:28:50;;;;;;;18.63;12.13;;;14.50;64.40;;;;;;5067210;28;21013;-88
2022/11/16 03:31:24;;;;;;;15.67;12.40;;;14.50;64.40;;;;;;5051923;28;20457;-85
2022/11/16 03:33:55;;;;;;;14.83;12.20;;;14.60;64.50;;;;;;5074634;28;20526;-86
2022/11/16 03:36:27;;;;;;;18.90;13.20;;;14.60;64.20;;;;;;5068404;28;20712;-87
2022/11/16 03:38:58;;;;;;;25.77;14.50;;;14.70;64.00;;;;;;5096666;28;20455;-88
2022/11/16 03:41:28;;;;;;;18.53;12.63;;;14.70;63.80;;;;;;5077721;28;20450;-88
2022/11/16 03:43:57;;;;;;;18.70;12.07;;;14.70;63.80;;;;;;5051419;28;20468;-87
2022/11/16 03:46:26;;;;;;;15.97;12.30;;;14.70;63.50;;;;;;5073822;28;20459;-89
2022/11/16 03:48:57;;;;;;;15.30;11.40;;;14.70;63.50;;;;;;5065687;28;20505;-87
2022/11/16 03:51:28;;;;;;;13.20;10.20;;;14.70;63.40;;;;;;5068190;28;20446;-87
2022/11/16 03:53:55;;;;;;;17.70;11.03;;;14.60;63.40;;;;;;5085375;28;20452;-86
2022/11/16 03:56:22;;;;;;;16.27;11.07;;;14.60;63.40;;;;;;5074755;28;20474;-86
2022/11/16 03:58:49;;;;;;;16.53;11.37;;;14.60;63.40;;;;;;5073974;28;20455;-88
2022/11/16 04:01:17;;;;;;;17.83;11.53;;;14.60;63.60;;;;;;5059092;28;20549;-85
2022/11/16 04:03:47;;;;;;;18.47;11.77;;;14.60;63.60;;;;;;5080664;28;20486;-88
2022/11/16 04:25:50;;;;;;;14.57;11.60;;;14.60;64.50;;;;;;5054778;28;20523;-86
2022/11/16 04:28:19;;;;;;;15.73;11.53;;;14.70;64.40;;;;;;5076068;28;20452;-86
2022/11/16 04:39:32;;;;;;;17.40;11.67;;;14.70;64.40;;;;;;5068312;28;20451;-89
2022/11/16 04:42:14;;;;;;;15.67;11.13;;;14.70;64.20;;;;;;5058411;28;20935;-86
2022/11/16 04:47:32;;;;;;;16.37;12.13;;;14.80;64.00;;;;;;5056258;28;20951;-88
2022/11/16 04:49:59;;;;;;;17.40;12.57;;;14.80;63.90;;;;;;5074147;28;20450;-88
2022/11/16 04:52:27;;;;;;;16.63;12.00;;;14.80;63.90;;;;;;5076530;28;20455;-87
2022/11/16 04:54:55;;;;;;;17.40;12.47;;;14.80;63.90;;;;;;5067207;28;20468;-87
2022/11/16 04:57:23;;;;;;;15.93;12.30;;;14.70;64.30;;;;;;5054829;28;20451;-85
2022/11/16 04:59:50;;;;;;;17.43;10.67;;;14.70;64.20;;;;;;5073806;28;20542;-87
2022/11/16 05:02:18;;;;;;;17.93;11.97;;;14.80;64.20;;;;;;5075939;28;20478;-85
2022/11/16 05:04:50;;;;;;;18.50;10.97;;;14.80;64.10;;;;;;5073505;28;21004;-85
2022/11/16 05:07:19;;;;;;;16.57;12.60;;;14.80;63.90;;;;;;5074608;28;20451;-85
2022/11/16 05:09:49;;;;;;;14.40;11.77;;;14.80;63.90;;;;;;5055621;28;20488;-88
2022/11/16 05:12:20;;;;;;;18.80;11.73;;;14.80;63.80;;;;;;5091638;28;21035;-85
2022/11/16 05:14:50;;;;;;;16.07;11.10;;;14.80;63.80;;;;;;5057748;28;20590;-85
2022/11/16 05:17:18;;;;;;;15.63;11.60;;;14.80;63.90;;;;;;5066719;28;20482;-89
2022/11/16 05:22:35;;;;;;;22.80;13.13;;;14.50;64.10;;;;;;5054801;28;20468;-85
2022/11/16 05:25:06;;;;;;;28.40;17.70;;;14.40;65.00;;;;;;5065928;28;20942;-86
2022/11/16 05:27:33;;;;;;;43.47;21.40;;;13.90;66.70;;;;;;5072719;28;20512;-85
2022/11/16 05:30:00;;;;;;;47.27;19.97;;;13.70;67.90;;;;;;5061806;28;20559;-85
2022/11/16 05:32:28;;;;;;;39.23;20.17;;;14.00;67.20;;;;;;5091118;28;20500;-86
2022/11/16 05:34:59;;;;;;;30.10;18.30;;;14.20;66.50;;;;;;5081437;28;20513;-86
2022/11/16 05:37:27;;;;;;;30.90;19.23;;;13.80;66.90;;;;;;5073716;28;20455;-88
2022/11/16 05:39:55;;;;;;;27.33;18.03;;;14.00;67.20;;;;;;5065700;28;20459;-87
2022/11/16 05:42:28;;;;;;;30.10;16.40;;;14.20;66.60;;;;;;5067471;28;20463;-87
2022/11/16 05:44:55;;;;;;;29.80;16.60;;;14.40;66.20;;;;;;5071975;28;21006;-87
2022/11/16 05:47:22;;;;;;;28.73;17.20;;;14.40;65.80;;;;;;5070794;28;20817;-84
2022/11/16 05:49:49;;;;;;;30.73;18.30;;;14.50;65.30;;;;;;5051315;28;20470;-87
2022/11/16 05:52:16;;;;;;;36.73;19.37;;;14.60;64.80;;;;;;5054820;28;20447;-86
2022/11/16 05:54:45;;;;;;;40.27;21.00;;;14.70;64.70;;;;;;5060666;28;20977;-88
2022/11/16 05:57:14;;;;;;;34.80;20.63;;;14.70;64.50;;;;;;5056925;28;20505;-86
2022/11/16 05:59:42;;;;;;;22.70;14.57;;;14.70;64.40;;;;;;5053180;28;20575;-88
2022/11/16 06:02:09;;;;;;;22.70;14.27;;;14.60;64.70;;;;;;5056328;28;20451;-88
2022/11/16 06:04:37;;;;;;;19.23;13.33;;;14.60;64.50;;;;;;5040088;28;20611;-87
2022/11/16 06:07:04;;;;;;;20.30;14.30;;;14.70;64.50;;;;;;5056874;28;20448;-89
2022/11/16 06:09:34;;;;;;;18.30;13.37;;;14.70;64.30;;;;;;5058746;28;20535;-86
2022/11/16 06:12:10;;;;;;;22.60;13.20;;;14.70;64.30;;;;;;5078157;28;20638;-86
2022/11/16 06:14:38;;;;;;;20.37;13.07;;;14.70;64.10;;;;;;5072028;28;20497;-87
2022/11/16 06:17:07;;;;;;;19.80;13.73;;;14.70;64.00;;;;;;5068526;28;20866;-85
2022/11/16 06:19:35;;;;;;;23.90;14.80;;;14.80;64.00;;;;;;5052252;28;20454;-86
2022/11/16 06:22:02;;;;;;;25.83;17.20;;;14.80;63.80;;;;;;5066997;28;20460;-86
2022/11/16 06:24:30;;;;;;;34.73;21.33;;;14.70;64.00;;;;;;5054886;28;20477;-88
2022/11/16 06:26:58;;;;;;;29.20;17.50;;;14.60;64.40;;;;;;5077348;28;20466;-88
2022/11/16 06:29:25;;;;;;;28.00;18.47;;;14.50;64.40;;;;;;5062938;28;21264;-87
2022/11/16 06:31:53;;;;;;;23.07;15.10;;;14.60;64.30;;;;;;5053919;28;20577;-87
2022/11/16 06:34:21;;;;;;;30.07;19.60;;;14.70;64.20;;;;;;5088521;28;20860;-88
2022/11/16 06:36:49;;;;;;;26.23;17.43;;;14.70;64.00;;;;;;5054466;28;20451;-87
2022/11/16 06:39:16;;;;;;;28.00;19.13;;;14.60;64.20;;;;;;5053937;28;20455;-88
2022/11/16 06:41:43;;;;;;;25.73;18.23;;;14.60;64.20;;;;;;5069590;28;21204;-87
2022/11/16 06:44:11;;;;;;;24.77;17.40;;;14.70;64.00;;;;;;5061154;28;20528;-85
2022/11/16 06:46:44;;;;;;;31.30;17.07;;;14.70;64.00;;;;;;5071868;28;20501;-88
2022/11/16 06:49:10;;;;;;;28.50;17.47;;;14.70;64.30;;;;;;5067532;28;21144;-87
2022/11/16 06:51:39;;;;;;;25.50;17.00;;;14.60;64.50;;;;;;5075836;28;21197;-87
2022/11/16 06:54:06;;;;;;;24.50;18.37;;;14.70;64.60;;;;;;5068411;28;20454;-88
2022/11/16 06:56:34;;;;;;;31.37;20.67;;;14.70;64.40;;;;;;5074748;28;20467;-88
2022/11/16 06:59:01;;;;;;;39.50;27.30;;;14.80;64.20;;;;;;5053895;28;21195;-87
2022/11/16 07:01:29;;;;;;;50.43;31.53;;;14.80;64.00;;;;;;5067445;28;20569;-86
2022/11/16 07:04:03;;;;;;;35.07;23.40;;;14.80;63.90;;;;;;5054062;28;20699;-87
2022/11/16 07:06:30;;;;;;;29.70;19.30;;;14.80;63.80;;;;;;5089136;28;20530;-85
2022/11/16 07:08:59;;;;;;;27.80;17.53;;;14.90;63.90;;;;;;5060985;28;20452;-86
2022/11/16 07:11:30;;;;;;;25.73;17.27;;;14.90;63.80;;;;;;5070632;28;20459;-84
2022/11/16 07:13:58;;;;;;;24.77;17.07;;;14.80;64.00;;;;;;5058965;28;20451;-84
2022/11/16 07:16:26;;;;;;;25.33;18.47;;;14.80;64.00;;;;;;5063471;28;20459;-86
2022/11/16 07:18:58;;;;;;;34.70;22.47;;;14.70;64.10;;;;;;5054748;28;20498;-86
2022/11/16 07:21:26;;;;;;;45.87;29.30;;;14.80;64.20;;;;;;5073984;28;20491;-88
2022/11/16 07:23:55;;;;;;;33.43;23.87;;;14.80;64.20;;;;;;5070980;28;20984;-85
2022/11/16 07:26:24;;;;;;;29.80;19.20;;;14.80;64.40;;;;;;5063243;28;20471;-86
2022/11/16 07:28:58;;;;;;;27.53;17.43;;;14.70;64.50;;;;;;5071096;28;20565;-87
2022/11/16 07:31:25;;;;;;;28.90;18.23;;;14.80;64.70;;;;;;5058478;28;20460;-88
2022/11/16 07:34:12;;;;;;;22.00;14.40;;;14.80;64.50;;;;;;5068909;28;20564;-89
2022/11/16 07:36:45;;;;;;;24.70;15.37;;;14.80;64.30;;;;;;5068286;28;21183;-86
2022/11/16 07:39:13;;;;;;;20.20;14.07;;;14.80;64.40;;;;;;5072327;28;20447;-87
2022/11/16 07:41:43;;;;;;;27.73;19.70;;;14.80;64.20;;;;;;5068923;28;20839;-88
2022/11/16 07:44:18;;;;;;;26.63;17.40;;;14.80;63.90;;;;;;5055485;28;20482;-87
2022/11/16 07:46:58;;;;;;;33.13;21.33;;;14.80;64.10;;;;;;5055456;28;20458;-87
2022/11/16 07:49:25;;;;;;;29.73;19.37;;;14.70;64.70;;;;;;5070548;28;20455;-87
2022/11/16 07:51:55;;;;;;;26.37;16.37;;;14.70;65.20;;;;;;5069262;28;20443;-88
2022/11/16 07:54:54;;;;;;;27.40;18.67;;;14.70;65.30;;;;;;5035107;28;20471;-88
2022/11/16 07:57:26;;;;;;;57.97;30.73;;;14.70;65.30;;;;;;5071055;28;20447;-87
2022/11/16 07:59:54;;;;;;;50.40;27.40;;;14.70;65.40;;;;;;5057226;28;20597;-86
2022/11/16 08:02:21;;;;;;;43.30;26.03;;;14.70;65.70;;;;;;5072462;28;21238;-86
2022/11/16 08:04:50;;;;;;;38.97;22.10;;;14.80;65.60;;;;;;5057441;28;20474;-87
2022/11/16 08:07:22;;;;;;;40.50;21.87;;;14.90;65.40;;;;;;5070255;28;20466;-85
2022/11/16 08:09:53;;;;;;;35.87;21.57;;;14.90;65.40;;;;;;5063837;28;20455;-85
2022/11/16 08:12:21;;;;;;;33.20;20.00;;;14.80;65.70;;;;;;5065556;28;20454;-87
2022/11/16 08:14:50;;;;;;;55.47;32.67;;;14.80;65.80;;;;;;5058656;28;20458;-87
2022/11/16 08:17:17;;;;;;;28.53;19.10;;;14.60;66.70;;;;;;5082689;28;20489;-85
2022/11/16 08:19:44;;;;;;;24.83;14.97;;;14.30;67.30;;;;;;5056197;28;20452;-87
2022/11/16 08:22:14;;;;;;;22.30;14.50;;;14.30;67.80;;;;;;5076890;28;20511;-88
2022/11/16 08:24:42;;;;;;;23.23;14.57;;;14.40;67.20;;;;;;5052350;28;20487;-87
2022/11/16 08:27:09;;;;;;;25.27;16.10;;;14.50;67.10;;;;;;5059939;28;20667;-88
2022/11/16 08:29:37;;;;;;;27.53;16.87;;;14.70;66.90;;;;;;5066452;28;20460;-87
2022/11/16 08:32:07;;;;;;;22.77;14.53;;;14.60;66.40;;;;;;5082668;28;20470;-87
2022/11/16 08:34:35;;;;;;;26.47;15.53;;;14.40;67.30;;;;;;5075774;28;20525;-87
2022/11/16 08:37:04;;;;;;;26.07;14.70;;;14.10;68.30;;;;;;5062502;28;20619;-86
2022/11/16 08:39:39;;;;;;;22.10;12.77;;;14.10;68.30;;;;;;5046301;28;20457;-86
2022/11/16 08:42:06;;;;;;;21.70;13.90;;;14.20;68.20;;;;;;5058792;28;20459;-87
2022/11/16 08:44:33;;;;;;;22.30;14.97;;;14.30;67.90;;;;;;5073949;28;20536;-86
2022/11/16 08:47:04;;;;;;;20.20;13.83;;;14.50;67.20;;;;;;5075053;28;20454;-87
2022/11/16 08:49:40;;;;;;;30.63;16.90;;;14.70;66.70;;;;;;5080438;28;20443;-85
2022/11/16 08:52:07;;;;;;;26.63;15.90;;;14.90;66.30;;;;;;5074345;28;20460;-87
2022/11/16 08:54:35;;;;;;;25.63;14.93;;;15.00;65.80;;;;;;5055355;28;20487;-87
2022/11/16 08:57:02;;;;;;;49.03;17.00;;;15.10;65.30;;;;;;5066132;28;20446;-87
2022/11/16 08:59:32;;;;;;;56.30;16.60;;;15.00;65.40;;;;;;5072198;28;20448;-86
2022/11/16 09:02:05;;;;;;;26.90;15.40;;;14.70;67.10;;;;;;5066233;28;20958;-87
2022/11/16 09:04:32;;;;;;;25.47;16.20;;;14.60;67.10;;;;;;5069854;28;20494;-89
2022/11/16 09:07:00;;;;;;;29.90;19.53;;;14.70;66.90;;;;;;5067006;28;20454;-89
2022/11/16 09:09:27;;;;;;;68.33;35.50;;;14.80;66.90;;;;;;5070615;28;20455;-87
2022/11/16 09:11:55;;;;;;;124.03;60.60;;;14.80;67.00;;;;;;5088390;28;21158;-87
2022/11/16 09:14:22;;;;;;;240.90;109.37;;;14.90;66.90;;;;;;5073461;28;20463;-87
2022/11/16 09:16:49;;;;;;;198.90;92.27;;;14.70;67.40;;;;;;5090408;28;20988;-88
2022/11/16 09:19:16;;;;;;;57.00;35.20;;;14.80;67.80;;;;;;5080649;28;20512;-88
2022/11/16 09:21:44;;;;;;;35.20;21.57;;;15.10;67.30;;;;;;5060847;28;20984;-86
2022/11/16 09:24:13;;;;;;;28.83;20.67;;;14.90;68.40;;;;;;5071754;28;20467;-87
2022/11/16 09:26:39;;;;;;;26.67;19.27;;;14.90;68.70;;;;;;5054540;28;20455;-88
2022/11/16 09:29:07;;;;;;;26.43;15.73;;;15.20;68.00;;;;;;5073194;28;20453;-88
2022/11/16 09:31:36;;;;;;;18.57;13.17;;;15.20;67.30;;;;;;5089657;28;20543;-86
2022/11/16 09:34:03;;;;;;;21.47;15.47;;;15.30;67.30;;;;;;5071655;28;20568;-88
2022/11/16 09:36:30;;;;;;;22.20;14.07;;;15.20;67.50;;;;;;5070434;28;20454;-86
2022/11/16 09:38:58;;;;;;;20.33;14.10;;;15.10;67.50;;;;;;5088158;28;20482;-87
2022/11/16 09:41:55;;;;;;;19.20;12.93;;;15.20;67.60;;;;;;5090757;28;20534;-89
2022/11/16 09:44:41;;;;;;;16.00;10.30;;;15.10;68.20;;;;;;5061066;28;21027;-87
2022/11/16 09:47:16;;;;;;;20.43;10.87;;;15.10;68.60;;;;;;5071605;28;20526;-87
2022/11/16 09:49:48;;;;;;;14.57;11.00;;;15.30;68.10;;;;;;5052999;28;20454;-89
2022/11/16 09:52:25;;;;;;;12.83;9.67;;;15.60;67.50;;;;;;5065633;28;20462;-88
2022/11/16 09:54:54;;;;;;;11.67;7.27;;;15.80;66.70;;;;;;5029545;28;20740;-87
2022/11/16 09:57:29;;;;;;;9.07;6.40;;;15.90;66.30;;;;;;5046407;28;20458;-89
2022/11/16 10:00:00;;;;;;;7.77;5.90;;;15.80;65.70;;;;;;5071614;28;20450;-87
2022/11/16 10:02:35;;;;;;;11.13;7.13;;;15.70;66.40;;;;;;5044021;28;20601;-87
2022/11/16 10:05:10;;;;;;;9.00;6.60;;;15.80;66.80;;;;;;5055512;28;20772;-87
2022/11/16 10:07:42;;;;;;;13.90;10.53;;;16.00;66.30;;;;;;5044951;28;21006;-87
2022/11/16 10:10:13;;;;;;;15.13;10.40;;;16.00;66.40;;;;;;5043540;28;20447;-88
2022/11/16 10:12:45;;;;;;;10.40;8.20;;;16.10;66.30;;;;;;5079162;28;20459;-88
2022/11/16 10:15:33;;;;;;;9.97;7.67;;;16.20;65.70;;;;;;5054980;28;20475;-89
2022/11/16 10:18:08;;;;;;;8.90;8.00;;;16.20;65.70;;;;;;5061061;28;20439;-86
2022/11/16 10:21:02;;;;;;;10.77;7.40;;;16.30;65.30;;;;;;5070891;28;20439;-87
2022/11/16 10:23:42;;;;;;;7.73;5.87;;;16.50;64.90;;;;;;5045896;28;20462;-86
2022/11/16 10:26:21;;;;;;;8.43;6.43;;;16.50;64.60;;;;;;5064725;28;21278;-89
2022/11/16 10:29:12;;;;;;;9.93;7.30;;;16.50;64.10;;;;;;5091146;28;20438;-87
2022/11/16 10:31:55;;;;;;;8.70;6.37;;;16.40;65.40;;;;;;5076711;28;20450;-86
2022/11/16 10:34:28;;;;;;;9.77;5.80;;;16.30;66.30;;;;;;5057145;28;20455;-87
2022/11/16 10:37:02;;;;;;;9.43;5.83;;;16.50;65.40;;;;;;5074774;28;20480;-88
2022/11/16 10:39:32;;;;;;;6.13;5.53;;;16.70;64.80;;;;;;5061892;28;20517;-87
2022/11/16 10:42:02;;;;;;;5.10;4.47;;;16.70;64.40;;;;;;5067285;28;20543;-88
2022/11/16 10:44:37;;;;;;;4.47;4.07;;;16.60;64.30;;;;;;5054892;28;20508;-87
2022/11/16 10:47:12;;;;;;;5.47;3.77;;;16.60;64.00;;;;;;5096293;28;20572;-87
2022/11/16 10:49:48;;;;;;;8.63;5.90;;;16.40;63.70;;;;;;5061522;28;20820;-88
2022/11/16 10:52:15;;;;;;;10.30;6.20;;;16.50;64.00;;;;;;5067496;28;20459;-88
2022/11/16 10:54:42;;;;;;;6.47;4.90;;;16.70;63.80;;;;;;5079304;28;21021;-89
2022/11/16 10:57:12;;;;;;;7.50;4.10;;;16.80;63.30;;;;;;5067249;28;20470;-90
2022/11/16 10:59:43;;;;;;;5.37;3.53;;;16.50;62.10;;;;;;5093412;28;20521;-87
2022/11/16 11:02:33;;;;;;;3.00;2.70;;;16.40;63.40;;;;;;5067523;28;20479;-87
2022/11/16 11:05:06;;;;;;;6.73;3.80;;;16.40;63.40;;;;;;5095879;28;20529;-88
2022/11/16 11:07:38;;;;;;;9.70;4.87;;;16.40;63.40;;;;;;5080115;28;20488;-87
2022/11/16 11:10:21;;;;;;;5.70;3.13;;;16.40;63.80;;;;;;5066836;28;20505;-86
2022/11/16 11:13:02;;;;;;;7.63;3.77;;;16.40;62.90;;;;;;5077637;28;21051;-87
2022/11/16 11:15:30;;;;;;;2.80;2.53;;;16.30;62.80;;;;;;5091912;28;21051;-87
2022/11/16 11:18:13;;;;;;;9.03;5.60;;;16.20;61.70;;;;;;5085044;28;20491;-87
2022/11/16 11:20:42;;;;;;;6.27;3.90;;;16.30;62.50;;;;;;5072379;28;20800;-87
2022/11/16 11:23:15;;;;;;;3.73;2.80;;;16.30;62.10;;;;;;5071941;28;20490;-88
2022/11/16 11:25:50;;;;;;;4.23;2.50;;;16.30;60.70;;;;;;5062182;28;20843;-87
2022/11/16 11:28:22;;;;;;;4.30;2.77;;;16.00;59.60;;;;;;5066847;28;20451;-86
2022/11/16 11:31:00;;;;;;;2.23;2.00;;;15.90;59.90;;;;;;5072138;28;20509;-87
2022/11/16 11:33:32;;;;;;;3.90;3.10;;;16.20;60.40;;;;;;5079495;28;20532;-88
2022/11/16 11:36:04;;;;;;;3.30;1.90;;;16.30;59.80;;;;;;5091208;28;20463;-87
2022/11/16 11:38:32;;;;;;;7.67;2.63;;;16.40;57.80;;;;;;5093855;28;20446;-88
2022/11/16 11:41:00;;;;;;;4.83;2.90;;;16.50;59.10;;;;;;5074632;28;20435;-88
2022/11/16 11:43:29;;;;;;;4.27;2.87;;;16.60;58.10;;;;;;5091978;28;20458;-90
2022/11/16 11:46:05;;;;;;;3.60;1.70;;;16.80;57.20;;;;;;5064692;28;20539;-88
2022/11/16 11:48:41;;;;;;;3.13;2.00;;;16.80;55.30;;;;;;5091877;28;20538;-86
2022/11/16 11:51:17;;;;;;;4.43;2.10;;;16.80;55.20;;;;;;5078624;28;20543;-86
2022/11/16 11:53:52;;;;;;;5.63;2.10;;;16.90;55.30;;;;;;5063682;28;20551;-88
2022/11/16 11:56:20;;;;;;;2.57;1.60;;;16.80;55.80;;;;;;5066200;28;20476;-89
2022/11/16 11:58:48;;;;;;;3.97;1.93;;;16.60;55.40;;;;;;5056195;28;20820;-89
2022/11/16 12:01:49;;;;;;;6.70;1.70;;;16.40;55.60;;;;;;5075731;28;20465;-86
2022/11/16 12:04:46;;;;;;;5.63;2.53;;;16.40;55.70;;;;;;5041887;28;20554;-88
2022/11/16 12:07:24;;;;;;;5.17;3.10;;;16.30;55.50;;;;;;5076435;28;20482;-88
2022/11/16 12:09:58;;;;;;;3.20;2.10;;;16.50;56.10;;;;;;5073550;28;20446;-87
2022/11/16 12:12:39;;;;;;;4.13;1.70;;;16.70;55.70;;;;;;5065690;28;20443;-87
2022/11/16 12:15:27;;;;;;;8.80;3.90;;;16.70;55.80;;;;;;5075808;28;20469;-86
2022/11/16 12:18:05;;;;;;;8.03;3.07;;;16.80;55.40;;;;;;5072042;28;20452;-88
2022/11/16 12:20:42;;;;;;;9.50;2.60;;;16.90;55.30;;;;;;5090388;28;21005;-87
2022/11/16 12:23:43;;;;;;;24.80;15.87;;;17.20;53.00;;;;;;5092486;28;20451;-87
2022/11/16 12:26:20;;;;;;;7.87;4.03;;;17.40;52.80;;;;;;5063810;28;20474;-87
2022/11/16 12:29:02;;;;;;;6.07;3.60;;;17.50;51.70;;;;;;5079043;28;20450;-89
2022/11/16 12:31:52;;;;;;;3.17;2.50;;;17.60;52.50;;;;;;5071794;28;20440;-87
2022/11/16 12:34:32;;;;;;;9.27;4.77;;;17.60;51.10;;;;;;5083597;28;21210;-88
2022/11/16 12:37:04;;;;;;;14.03;4.10;;;17.70;52.30;;;;;;5076253;28;20550;-89
2022/11/16 12:39:34;;;;;;;5.83;3.50;;;17.70;52.40;;;;;;5074593;28;20457;-86
2022/11/16 12:42:25;;;;;;;10.63;4.70;;;17.60;50.80;;;;;;5074609;28;20455;-88
2022/11/16 12:45:15;;;;;;;8.00;4.00;;;17.50;52.70;;;;;;5094048;28;20473;-89
2022/11/16 12:47:59;;;;;;;7.10;4.33;;;17.50;53.00;;;;;;5073795;28;20443;-87
2022/11/16 12:50:42;;;;;;;2.87;2.00;;;17.30;52.70;;;;;;5096963;28;20894;-88
2022/11/16 12:53:21;;;;;;;3.53;1.93;;;17.40;53.70;;;;;;5066300;28;20440;-87
2022/11/16 12:56:00;;;;;;;19.67;3.10;;;17.40;53.20;;;;;;5069840;28;20471;-89
2022/11/16 12:58:46;;;;;;;5.10;2.97;;;17.60;53.60;;;;;;5067363;28;20447;-87
2022/11/16 13:01:20;;;;;;;4.40;1.90;;;17.80;53.30;;;;;;5060950;28;20438;-87
2022/11/16 13:03:50;;;;;;;5.93;2.27;;;17.90;53.20;;;;;;5068099;28;20462;-89
2022/11/16 13:06:25;;;;;;;5.40;3.20;;;17.80;52.20;;;;;;5087862;28;20595;-86
2022/11/16 13:09:01;;;;;;;7.03;2.53;;;17.80;52.70;;;;;;5081536;28;20457;-86
2022/11/16 13:11:33;;;;;;;5.63;3.60;;;17.70;53.80;;;;;;5071633;28;20439;-87
2022/11/16 13:14:05;;;;;;;6.53;1.90;;;17.60;53.00;;;;;;5068831;28;20447;-88
2022/11/16 13:16:32;;;;;;;5.20;2.47;;;17.40;53.40;;;;;;5060841;28;20592;-87
2022/11/16 13:19:00;;;;;;;6.63;2.70;;;17.40;54.20;;;;;;5074233;28;20451;-90
2022/11/16 13:21:40;;;;;;;6.00;2.20;;;17.20;53.10;;;;;;5095312;28;20815;-86
2022/11/16 13:24:19;;;;;;;3.70;3.40;;;17.20;53.60;;;;;;5076422;28;20461;-87
2022/11/16 13:26:54;;;;;;;2.73;2.10;;;17.20;53.60;;;;;;5074653;28;20443;-87
2022/11/16 13:29:29;;;;;;;2.50;2.30;;;17.10;53.20;;;;;;5078171;28;20451;-89
2022/11/16 13:32:02;;;;;;;3.50;2.20;;;16.90;54.40;;;;;;5078505;28;20461;-88
2022/11/16 13:34:32;;;;;;;6.70;2.67;;;17.00;54.40;;;;;;5084603;28;21056;-88
2022/11/16 13:37:01;;;;;;;3.30;2.67;;;16.90;53.90;;;;;;5068317;28;20454;-90